Time;durP1;ratioP1;P1;durP2;ratioP2;P2;SDS_P1;SDS_P2;PMS_P1;PMS_P2;Temp;Humidity;BMP_temperature;BMP_pressure;BME280_temperature;BME280_humidity;BME280_pressure;Samples;Min_cycle;Max_cycle;Signal;HPM_P1;HPM_P2
2021/03/02 12:56:52;;;;;;;16.10;9.32;;;24.60;49.00;;;;;;5079142;28;20371;-74
2021/03/02 12:59:18;;;;;;;14.85;10.45;;;23.80;47.20;;;;;;5057777;28;20033;-75
2021/03/02 13:01:45;;;;;;;16.35;9.60;;;23.90;47.20;;;;;;5065099;28;20096;-75
2021/03/02 13:04:11;;;;;;;15.25;9.50;;;23.50;49.10;;;;;;5058965;28;20040;-76
2021/03/02 13:06:38;;;;;;;15.95;9.85;;;23.30;47.50;;;;;;5062338;28;20021;-76
2021/03/02 13:09:05;;;;;;;13.93;9.73;;;23.20;47.80;;;;;;5063447;28;20039;-77
2021/03/02 13:11:30;;;;;;;14.65;9.35;;;23.30;48.00;;;;;;5057367;28;20162;-74
2021/03/02 13:13:56;;;;;;;13.32;9.38;;;24.10;47.60;;;;;;5054725;28;20726;-76
2021/03/02 13:16:22;;;;;;;17.85;10.57;;;24.20;47.50;;;;;;5055040;28;20560;-76
2021/03/02 13:18:48;;;;;;;16.80;10.25;;;24.60;46.60;;;;;;5058426;28;20013;-76
2021/03/02 13:21:15;;;;;;;16.27;10.95;;;25.20;45.60;;;;;;5050255;28;20543;-75
2021/03/02 13:23:46;;;;;;;17.35;9.85;;;25.30;45.60;;;;;;5049332;28;20017;-75
2021/03/02 13:26:22;;;;;;;16.10;10.35;;;25.50;45.00;;;;;;5059618;28;20052;-75
2021/03/02 13:28:49;;;;;;;19.33;10.32;;;25.00;44.40;;;;;;5057729;28;20021;-75
2021/03/02 13:31:15;;;;;;;17.98;10.30;;;25.10;44.60;;;;;;5060036;28;20035;-75
2021/03/02 13:33:43;;;;;;;20.73;10.88;;;24.20;46.50;;;;;;5051589;28;20035;-75
2021/03/02 13:36:11;;;;;;;17.40;11.45;;;24.40;46.10;;;;;;5056799;28;20028;-75
2021/03/02 13:38:37;;;;;;;17.00;10.65;;;24.60;45.50;;;;;;5063203;28;20085;-75
2021/03/02 13:41:07;;;;;;;16.77;11.15;;;24.60;45.40;;;;;;5061136;28;20156;-75
2021/03/02 13:43:37;;;;;;;17.23;11.55;;;24.50;45.80;;;;;;5060028;28;20477;-76
2021/03/02 13:46:04;;;;;;;16.60;11.73;;;24.50;46.70;;;;;;5062893;28;20378;-75
2021/03/02 13:48:33;;;;;;;19.23;12.13;;;24.50;47.10;;;;;;5061775;28;20056;-76
2021/03/02 13:51:00;;;;;;;18.75;11.90;;;24.20;47.40;;;;;;5054364;28;20029;-75
2021/03/02 13:53:29;;;;;;;19.75;12.68;;;24.50;47.10;;;;;;5057250;28;20448;-75
2021/03/02 13:55:55;;;;;;;18.23;12.82;;;23.70;47.40;;;;;;5062776;28;20035;-75
2021/03/02 13:58:22;;;;;;;26.65;11.68;;;23.70;48.10;;;;;;5062979;28;20039;-75
2021/03/02 14:00:47;;;;;;;18.38;12.65;;;23.70;47.20;;;;;;5064115;28;20143;-75
2021/03/02 14:03:16;;;;;;;17.42;11.55;;;23.70;47.70;;;;;;5065803;28;20129;-75
2021/03/02 14:05:42;;;;;;;19.60;12.10;;;23.10;48.20;;;;;;5060282;28;20470;-76
2021/03/02 14:08:10;;;;;;;20.30;13.55;;;23.10;47.80;;;;;;5052835;28;20029;-76
2021/03/02 14:10:36;;;;;;;19.45;12.60;;;22.80;48.70;;;;;;5051702;28;20037;-76
2021/03/02 14:13:03;;;;;;;20.83;12.48;;;23.20;48.80;;;;;;5048895;28;20028;-76
2021/03/02 14:15:32;;;;;;;16.77;12.13;;;23.50;48.40;;;;;;5051154;28;20033;-76
2021/03/02 14:17:58;;;;;;;17.63;11.68;;;24.00;46.70;;;;;;5048173;28;20021;-76
2021/03/02 14:20:25;;;;;;;16.45;11.13;;;24.30;46.10;;;;;;5049955;28;20108;-76
2021/03/02 14:22:51;;;;;;;20.77;11.80;;;24.40;46.90;;;;;;5052698;28;20108;-76
2021/03/02 14:25:18;;;;;;;19.27;11.57;;;24.50;46.30;;;;;;5045258;28;20108;-76
2021/03/02 14:27:44;;;;;;;19.75;11.82;;;24.90;46.40;;;;;;5049453;28;20025;-76
2021/03/02 14:30:13;;;;;;;17.80;12.40;;;24.60;46.70;;;;;;5050491;28;20029;-76
2021/03/02 14:32:40;;;;;;;20.85;12.35;;;24.80;46.90;;;;;;5043601;28;20115;-76
2021/03/02 14:35:08;;;;;;;16.63;10.77;;;24.60;46.70;;;;;;5048561;28;20025;-76
2021/03/02 14:37:33;;;;;;;19.00;12.02;;;25.40;46.30;;;;;;5052666;28;20026;-76
2021/03/02 14:39:59;;;;;;;15.77;11.18;;;25.70;46.00;;;;;;5050843;28;20021;-75
2021/03/02 14:42:28;;;;;;;17.73;11.13;;;25.60;45.60;;;;;;5046951;28;20056;-75
2021/03/02 14:44:59;;;;;;;20.45;11.90;;;26.80;44.90;;;;;;5051757;28;20032;-75
2021/03/02 14:47:31;;;;;;;15.55;10.88;;;26.90;44.70;;;;;;5052907;28;20036;-75
2021/03/02 14:50:01;;;;;;;;;;;27.00;44.00;;;;;;5054018;28;20025;-75
2021/03/02 14:52:27;;;;;;;18.23;12.00;;;27.20;44.20;;;;;;5052775;28;19905;-75
2021/03/02 14:54:56;;;;;;;20.60;12.57;;;26.90;44.20;;;;;;5053335;28;20033;-75
2021/03/02 14:57:23;;;;;;;19.13;11.52;;;26.60;44.20;;;;;;5043366;28;20083;-75
2021/03/02 14:59:49;;;;;;;16.10;10.95;;;26.90;44.00;;;;;;5033329;28;20505;-75
2021/03/02 15:02:15;;;;;;;18.65;10.52;;;27.10;44.30;;;;;;5040328;28;20033;-75
2021/03/02 15:04:41;;;;;;;17.50;11.98;;;26.70;44.50;;;;;;5043442;28;20022;-76
2021/03/02 15:07:11;;;;;;;21.70;11.13;;;27.40;43.80;;;;;;5033497;28;20077;-76
2021/03/02 15:09:41;;;;;;;15.07;10.63;;;27.50;43.60;;;;;;5033446;28;20474;-75
2021/03/02 15:12:08;;;;;;;16.45;11.48;;;27.10;43.90;;;;;;5032476;28;20052;-75
2021/03/02 15:14:36;;;;;;;21.17;11.93;;;27.10;43.70;;;;;;5045382;28;20101;-75
2021/03/02 15:17:02;;;;;;;15.02;11.00;;;27.30;42.90;;;;;;5031716;28;20032;-75
2021/03/02 15:19:29;;;;;;;15.02;10.98;;;27.60;43.50;;;;;;5038434;28;20029;-76
2021/03/02 15:21:57;;;;;;;15.82;11.50;;;27.20;43.20;;;;;;5052319;28;20021;-76
2021/03/02 15:24:23;;;;;;;17.17;11.38;;;26.80;43.50;;;;;;5047396;28;20049;-76
2021/03/02 15:26:49;;;;;;;15.18;11.40;;;26.90;43.70;;;;;;5030012;28;20072;-76
2021/03/02 15:29:16;;;;;;;17.50;11.10;;;26.70;43.60;;;;;;5036163;28;20541;-76
2021/03/02 15:31:45;;;;;;;15.20;10.50;;;26.80;43.40;;;;;;5049770;28;20025;-76
2021/03/02 15:34:11;;;;;;;15.98;9.98;;;26.90;43.60;;;;;;5050235;28;20432;-76
2021/03/02 15:36:46;;;;;;;16.15;10.65;;;26.70;44.00;;;;;;5052057;28;20029;-76
2021/03/02 15:39:16;;;;;;;18.13;10.63;;;26.80;43.40;;;;;;5049086;28;20042;-76
2021/03/02 15:41:45;;;;;;;14.43;10.40;;;26.40;44.10;;;;;;5032171;28;20037;-76
2021/03/02 15:44:12;;;;;;;17.27;11.13;;;26.30;44.30;;;;;;5036100;28;20098;-76
2021/03/02 15:46:38;;;;;;;13.25;9.93;;;26.30;44.00;;;;;;5052330;28;20032;-76
2021/03/02 15:49:08;;;;;;;15.70;10.70;;;26.00;44.30;;;;;;5049197;28;20037;-76
2021/03/02 15:51:38;;;;;;;16.33;10.73;;;26.00;44.20;;;;;;5032169;28;20030;-76
2021/03/02 15:54:05;;;;;;;22.80;10.02;;;26.00;44.30;;;;;;5034191;28;20540;-76
2021/03/02 15:56:32;;;;;;;18.08;10.23;;;25.50;44.30;;;;;;5052048;28;20047;-76
2021/03/02 15:58:58;;;;;;;16.10;9.77;;;25.70;44.50;;;;;;5050743;28;20086;-76
2021/03/02 16:01:47;;;;;;;18.38;9.60;;;26.00;44.30;;;;;;5048937;28;20112;-76
2021/03/02 16:04:23;;;;;;;17.92;10.27;;;25.90;44.50;;;;;;5043366;28;20044;-76
2021/03/02 16:06:57;;;;;;;17.80;9.88;;;25.60;43.60;;;;;;5032224;28;20109;-76
2021/03/02 16:09:33;;;;;;;16.35;9.88;;;25.50;45.20;;;;;;5036204;28;20428;-76
2021/03/02 16:12:03;;;;;;;15.63;10.00;;;25.20;44.30;;;;;;5009579;28;20604;-76
2021/03/02 16:14:32;;;;;;;19.23;10.60;;;25.00;44.30;;;;;;5033402;28;20033;-76
2021/03/02 16:17:03;;;;;;;56.47;28.60;;;24.70;45.00;;;;;;5029751;28;20091;-77
2021/03/02 16:19:34;;;;;;;38.95;22.95;;;24.60;46.00;;;;;;5049358;28;20481;-75
2021/03/02 16:22:04;;;;;;;19.85;13.18;;;24.40;46.80;;;;;;5032117;28;20028;-75
2021/03/02 16:24:32;;;;;;;22.75;12.55;;;24.20;47.40;;;;;;5036905;28;20389;-75
2021/03/02 16:26:59;;;;;;;25.27;13.50;;;23.60;48.30;;;;;;5050358;28;20028;-75
2021/03/02 16:29:28;;;;;;;19.63;11.35;;;23.20;49.40;;;;;;5047081;28;20070;-75
2021/03/02 16:31:57;;;;;;;25.48;11.13;;;22.90;49.80;;;;;;5033950;28;20030;-75
2021/03/02 16:34:28;;;;;;;17.98;11.50;;;22.30;50.40;;;;;;5039501;28;20398;-76
2021/03/02 16:37:00;;;;;;;23.67;11.75;;;21.90;50.20;;;;;;5054082;28;20033;-75
2021/03/02 16:39:26;;;;;;;19.63;11.13;;;21.80;51.20;;;;;;5045606;28;20021;-76
2021/03/02 16:41:52;;;;;;;18.23;11.43;;;21.50;52.50;;;;;;5030771;28;20045;-75
2021/03/02 16:44:19;;;;;;;19.63;12.50;;;21.20;53.00;;;;;;5031139;28;20087;-75
2021/03/02 16:46:45;;;;;;;20.58;12.85;;;20.70;53.90;;;;;;5031130;28;20025;-76
2021/03/02 16:49:20;;;;;;;20.15;13.00;;;20.00;55.20;;;;;;5033641;28;20044;-75
2021/03/02 16:52:06;;;;;;;19.60;11.38;;;19.90;56.50;;;;;;5032834;28;20532;-76
2021/03/02 16:54:39;;;;;;;20.20;12.80;;;18.90;56.30;;;;;;5024675;28;20441;-75
2021/03/02 16:57:09;;;;;;;18.45;12.05;;;18.10;59.30;;;;;;5050922;28;20047;-75
2021/03/02 16:59:37;;;;;;;21.58;11.88;;;17.30;61.20;;;;;;5043731;28;20022;-75
2021/03/02 17:02:09;;;;;;;19.35;12.07;;;16.80;63.60;;;;;;5013028;28;20056;-75
2021/03/02 17:04:36;;;;;;;18.98;12.65;;;16.10;65.70;;;;;;5031319;28;20025;-75
2021/03/02 17:07:03;;;;;;;23.00;13.15;;;15.80;67.10;;;;;;5029602;28;20037;-75
2021/03/02 17:09:34;;;;;;;23.40;14.25;;;15.10;69.30;;;;;;5036847;28;20424;-75
2021/03/02 17:12:00;;;;;;;23.17;12.65;;;14.60;71.70;;;;;;5042583;28;20053;-75
2021/03/02 17:14:26;;;;;;;21.15;12.57;;;14.30;74.50;;;;;;5028471;28;20439;-76
2021/03/02 17:16:51;;;;;;;24.75;14.48;;;14.40;77.20;;;;;;5028482;28;20022;-76
2021/03/02 17:19:17;;;;;;;31.92;14.27;;;13.80;80.30;;;;;;5034470;28;20025;-76
2021/03/02 17:21:43;;;;;;;26.25;16.02;;;13.80;84.40;;;;;;5032310;28;20031;-76
2021/03/02 17:24:10;;;;;;;26.45;15.85;;;13.30;89.70;;;;;;5034484;28;20064;-76
2021/03/02 17:26:36;;;;;;;21.15;14.40;;;13.10;92.20;;;;;;5037904;28;20514;-76
2021/03/02 17:29:02;;;;;;;30.65;15.07;;;12.60;95.10;;;;;;5030017;28;20029;-76
2021/03/02 17:31:27;;;;;;;22.30;14.55;;;14.30;98.20;;;;;;5042054;28;20370;-76
2021/03/02 17:33:53;;;;;;;25.95;14.43;;;12.30;99.90;;;;;;5028570;28;20071;-76
2021/03/02 17:36:18;;;;;;;30.27;15.55;;;12.10;99.90;;;;;;5025858;28;20548;-77
2021/03/02 17:38:44;;;;;;;33.90;17.27;;;12.00;99.90;;;;;;5030739;28;20025;-76
2021/03/02 17:41:10;;;;;;;33.25;16.40;;;13.50;99.90;;;;;;5050877;28;20104;-75
2021/03/02 17:43:35;;;;;;;29.33;15.60;;;12.50;99.90;;;;;;5053705;28;20477;-76
2021/03/02 17:46:03;;;;;;;34.40;16.58;;;11.80;99.90;;;;;;5033870;28;20421;-75
2021/03/02 17:48:29;;;;;;;26.75;13.88;;;11.40;99.90;;;;;;5028396;28;20053;-74
2021/03/02 17:50:54;;;;;;;27.25;15.25;;;11.50;99.90;;;;;;5031671;28;20550;-74
2021/03/02 17:53:21;;;;;;;26.67;14.13;;;12.30;99.90;;;;;;5028985;28;20029;-73
2021/03/02 17:55:50;;;;;;;25.67;13.55;;;10.80;99.90;;;;;;5036024;28;20033;-75
2021/03/02 17:58:15;;;;;;;23.75;13.68;;;10.80;99.90;;;;;;5030121;28;20100;-75
2021/03/02 18:00:41;;;;;;;23.88;13.63;;;10.60;99.90;;;;;;5046969;28;20501;-74
2021/03/02 18:03:07;;;;;;;23.25;13.70;;;12.00;99.90;;;;;;5040535;28;20030;-74
2021/03/02 18:05:32;;;;;;;22.23;13.63;;;10.40;99.90;;;;;;5044007;28;20128;-74
2021/03/02 18:07:58;;;;;;;24.90;14.35;;;10.30;99.90;;;;;;5039780;28;20060;-74
2021/03/02 18:10:24;;;;;;;27.63;15.15;;;10.20;99.90;;;;;;5042662;28;20048;-73
2021/03/02 18:12:49;;;;;;;28.55;15.55;;;10.10;99.90;;;;;;5048312;28;20055;-74
2021/03/02 18:15:15;;;;;;;28.15;14.45;;;9.00;99.90;;;;;;5020051;28;20688;-73
2021/03/02 18:17:41;;;;;;;27.02;14.57;;;9.80;99.90;;;;;;5030135;28;20033;-74
2021/03/02 18:20:07;;;;;;;24.77;14.75;;;10.50;99.90;;;;;;5041751;28;20385;-74
2021/03/02 18:22:33;;;;;;;29.52;15.35;;;9.50;99.90;;;;;;5049100;28;20485;-76
2021/03/02 18:24:58;;;;;;;28.80;15.40;;;10.50;99.90;;;;;;5038178;28;20033;-74
2021/03/02 18:27:24;;;;;;;31.73;17.75;;;9.70;99.90;;;;;;5032152;28;20032;-72
2021/03/02 18:29:50;;;;;;;27.80;16.08;;;9.20;99.90;;;;;;5043232;28;20477;-76
2021/03/02 18:32:15;;;;;;;28.58;16.10;;;8.90;99.90;;;;;;5051110;28;20047;-76
2021/03/02 18:34:41;;;;;;;27.98;14.68;;;8.90;99.90;;;;;;5036365;28;20040;-72
2021/03/02 18:37:06;;;;;;;28.73;15.05;;;8.80;99.90;;;;;;5049804;28;20109;-74
2021/03/02 18:39:33;;;;;;;27.15;14.90;;;8.80;99.90;;;;;;5038587;28;20436;-75
2021/03/02 18:41:59;;;;;;;30.08;15.18;;;8.60;99.90;;;;;;5033323;28;20029;-75
2021/03/02 18:44:25;;;;;;;28.60;15.20;;;10.00;99.90;;;;;;5038394;28;20074;-75
2021/03/02 18:46:51;;;;;;;29.67;14.48;;;8.30;99.90;;;;;;5052304;28;20017;-74
2021/03/02 18:49:19;;;;;;;26.13;15.02;;;8.50;99.90;;;;;;5029371;28;20028;-75
2021/03/02 18:51:44;;;;;;;32.75;15.68;;;8.20;99.90;;;;;;5032513;28;20029;-75
2021/03/02 18:54:11;;;;;;;25.58;15.32;;;8.20;99.90;;;;;;5031758;28;20547;-75
